createdAt,value
2018-11-23T00:00:31.504Z,21.57
2018-11-23T00:03:01.168Z,22.17
2018-11-23T00:05:30.367Z,22.80
2018-11-23T00:08:00.183Z,20.65
2018-11-23T00:10:32.216Z,22.23
2018-11-23T00:13:01.317Z,21.87
2018-11-23T00:15:30.506Z,22.70
2018-11-23T00:17:59.711Z,22.03
2018-11-23T00:20:29.795Z,22.17
2018-11-23T00:22:59.001Z,20.77
2018-11-23T00:25:28.425Z,21.67
2018-11-23T00:27:58.475Z,23.93
2018-11-23T00:30:29.208Z,22.95
2018-11-23T00:32:59.034Z,21.75
2018-11-23T00:35:29.555Z,22.52
2018-11-23T00:37:58.877Z,21.70
2018-11-23T00:40:29.211Z,21.75
2018-11-23T00:42:59.326Z,21.67
2018-11-23T00:45:28.601Z,23.30
2018-11-23T00:47:58.673Z,22.20
2018-11-23T00:50:28.217Z,21.07
2018-11-23T00:52:58.491Z,22.07
2018-11-23T00:55:28.931Z,21.90
2018-11-23T00:57:58.148Z,22.53
2018-11-23T01:00:29.359Z,21.63
2018-11-23T01:02:59.380Z,23.47
2018-11-23T01:05:28.563Z,23.77
2018-11-23T01:07:58.685Z,23.80
2018-11-23T01:10:28.723Z,22.23
2018-11-23T01:12:58.439Z,22.07
2018-11-23T01:15:27.574Z,22.37
2018-11-23T01:17:56.673Z,22.20
2018-11-23T01:20:26.806Z,20.87
2018-11-23T01:22:56.723Z,21.97
2018-11-23T01:25:26.599Z,22.70
2018-11-23T01:27:56.193Z,20.13
2018-11-23T01:30:26.697Z,21.97
2018-11-23T01:32:55.866Z,21.27
2018-11-23T01:35:25.000Z,20.48
2018-11-23T01:37:54.163Z,22.33
2018-11-23T01:40:24.563Z,20.75
2018-11-23T01:43:24.550Z,21.50
2018-11-23T01:45:53.683Z,21.10
2018-11-23T01:48:23.015Z,23.73
2018-11-23T01:50:52.169Z,23.27
2018-11-23T01:53:21.292Z,22.37
2018-11-23T01:55:50.464Z,22.07
2018-11-23T01:58:19.620Z,22.70
2018-11-23T02:00:49.346Z,25.00
2018-11-23T02:03:19.364Z,24.25
2018-11-23T02:05:49.372Z,22.82
2018-11-23T02:08:19.418Z,23.95
2018-11-23T02:10:49.412Z,24.43
2018-11-23T02:13:19.445Z,24.18
2018-11-23T02:15:49.551Z,23.25
2018-11-23T02:18:20.054Z,23.50
2018-11-23T02:20:49.480Z,24.95
2018-11-23T02:23:19.476Z,22.62
2018-11-23T02:25:49.483Z,24.20
2018-11-23T02:28:19.491Z,24.77
2018-11-23T02:30:51.119Z,25.25
2018-11-23T02:33:20.313Z,25.67
2018-11-23T02:35:49.700Z,22.98
2018-11-23T02:38:19.599Z,23.38
2018-11-23T02:40:50.446Z,23.98
2018-11-23T02:43:19.711Z,23.30
2018-11-23T02:45:49.634Z,22.95
2018-11-23T02:48:19.798Z,24.63
2018-11-23T02:50:49.704Z,25.23
2018-11-23T02:53:19.904Z,23.63
2018-11-23T02:55:49.852Z,24.10
2018-11-23T02:58:19.819Z,24.10
2018-11-23T03:00:49.806Z,23.17
2018-11-23T03:03:19.832Z,24.70
2018-11-23T03:05:49.864Z,24.37
2018-11-23T03:08:20.649Z,24.40
2018-11-23T03:10:50.556Z,22.47
2018-11-23T03:13:19.870Z,25.60
2018-11-23T03:15:49.983Z,25.48
2018-11-23T03:18:20.622Z,26.50
2018-11-23T03:20:49.999Z,26.27
2018-11-23T03:23:19.976Z,27.80
2018-11-23T03:25:50.071Z,27.62
2018-11-23T03:28:20.005Z,27.45
2018-11-23T03:30:49.909Z,26.90
2018-11-23T03:33:20.023Z,26.73
2018-11-23T03:35:50.205Z,26.48
2018-11-23T03:38:20.983Z,27.60
2018-11-23T03:40:50.884Z,27.03
2018-11-23T03:43:20.328Z,25.67
2018-11-23T03:45:49.451Z,26.50
2018-11-23T03:48:18.551Z,28.30
2018-11-23T03:50:47.695Z,26.13
2018-11-23T03:53:16.843Z,27.70
2018-11-23T03:55:45.957Z,28.00
2018-11-23T03:58:15.115Z,26.53
2018-11-23T04:00:44.213Z,27.23
2018-11-23T04:03:13.337Z,24.80
2018-11-23T04:05:42.478Z,27.03
2018-11-23T04:08:11.636Z,27.83
2018-11-23T04:10:40.729Z,26.60
2018-11-23T04:13:09.889Z,25.93
2018-11-23T04:15:39.001Z,26.77
2018-11-23T04:18:08.093Z,28.60
2018-11-23T04:23:20.737Z,27.37
2018-11-23T04:25:50.545Z,25.20
2018-11-23T04:28:20.305Z,24.67
2018-11-23T04:30:50.311Z,26.57
2018-11-23T04:33:20.213Z,27.10
2018-11-23T04:35:50.349Z,26.07
2018-11-23T04:38:20.339Z,28.63
2018-11-23T04:40:50.379Z,29.55
2018-11-23T04:43:20.325Z,26.17
2018-11-23T04:45:50.412Z,27.93
2018-11-23T04:48:20.405Z,28.12
2018-11-23T04:50:50.334Z,27.05
2018-11-23T04:53:20.339Z,27.10
2018-11-23T04:55:50.499Z,27.05
2018-11-23T04:58:20.427Z,27.65
2018-11-23T05:00:50.473Z,26.40
2018-11-23T05:03:20.504Z,27.05
2018-11-23T05:05:50.489Z,25.40
2018-11-23T05:08:20.541Z,26.65
2018-11-23T05:10:50.522Z,26.00
2018-11-23T05:13:20.541Z,26.37
2018-11-23T05:15:50.667Z,26.70
2018-11-23T05:18:20.535Z,25.70
2018-11-23T05:20:50.571Z,24.50
2018-11-23T05:23:20.497Z,26.17
2018-11-23T05:25:50.717Z,26.62
2018-11-23T05:28:20.686Z,27.22
2018-11-23T05:30:50.743Z,26.17
2018-11-23T05:33:20.671Z,26.68
2018-11-23T05:35:50.679Z,25.85
2018-11-23T05:38:20.748Z,24.63
2018-11-23T05:40:50.932Z,25.52
2018-11-23T05:43:20.771Z,26.55
2018-11-23T05:45:50.791Z,25.80
2018-11-23T05:48:26.780Z,26.77
2018-11-23T05:50:51.521Z,28.07
2018-11-23T05:53:21.090Z,27.87
2018-11-23T05:55:51.103Z,25.90
2018-11-23T05:58:20.896Z,25.85
2018-11-23T06:00:50.929Z,25.73
2018-11-23T06:03:21.754Z,27.05
2018-11-23T06:05:51.705Z,26.40
2018-11-23T06:08:20.987Z,27.15
2018-11-23T06:10:50.967Z,27.73
2018-11-23T06:13:21.756Z,25.65
2018-11-23T06:15:51.043Z,28.30
2018-11-23T06:18:21.196Z,26.20
2018-11-23T06:20:51.108Z,26.62
2018-11-23T06:23:21.102Z,25.23
2018-11-23T06:26:09.648Z,25.82
2018-11-23T06:28:39.407Z,27.83
2018-11-23T06:31:08.612Z,26.60
2018-11-23T06:33:41.055Z,27.67
2018-11-23T06:36:10.223Z,24.57
2018-11-23T06:38:39.441Z,26.70
2018-11-23T06:41:10.464Z,26.77
2018-11-23T06:43:39.001Z,24.07
2018-11-23T06:46:09.578Z,26.40
2018-11-23T06:48:38.764Z,23.53
2018-11-23T06:51:08.232Z,23.20
2018-11-23T06:53:37.386Z,26.10
2018-11-23T06:56:06.883Z,28.30
2018-11-23T06:58:36.099Z,25.83
2018-11-23T07:01:06.159Z,28.00
2018-11-23T07:03:35.339Z,26.37
2018-11-23T07:06:04.508Z,25.87
2018-11-23T07:08:33.689Z,27.60
2018-11-23T07:11:03.856Z,26.87
2018-11-23T07:13:34.200Z,24.03
2018-11-23T07:16:03.367Z,25.40
2018-11-23T07:18:32.593Z,25.70
2018-11-23T07:21:01.734Z,25.37
2018-11-23T07:23:31.315Z,23.87
2018-11-23T07:26:00.465Z,24.93
2018-11-23T07:28:29.658Z,26.07
2018-11-23T07:31:02.516Z,27.47
2018-11-23T07:33:28.124Z,28.17
2018-11-23T07:35:57.276Z,27.10
2018-11-23T07:38:28.397Z,26.53
2018-11-23T07:41:09.231Z,26.40
2018-11-23T07:43:40.788Z,25.63
2018-11-23T07:46:09.942Z,27.53
2018-11-23T07:48:39.117Z,25.00
2018-11-23T07:51:08.289Z,24.53
2018-11-23T07:53:37.431Z,23.67
2018-11-23T07:56:06.652Z,24.20
2018-11-23T07:58:35.867Z,21.10
2018-11-23T08:01:05.311Z,24.15
2018-11-23T08:03:35.186Z,25.87
2018-11-23T08:06:05.055Z,23.00
2018-11-23T08:08:34.977Z,24.30
2018-11-23T08:11:07.959Z,22.00
2018-11-23T08:13:37.877Z,22.50
2018-11-23T08:16:07.121Z,22.80
2018-11-23T08:18:36.333Z,24.27
2018-11-23T08:21:06.209Z,22.87
2018-11-23T08:23:35.385Z,22.60
2018-11-23T08:26:05.272Z,21.60
2018-11-23T08:28:34.507Z,22.50
2018-11-23T08:31:03.692Z,23.00
2018-11-23T08:33:32.849Z,21.13
2018-11-23T08:36:02.023Z,22.05
2018-11-23T08:38:33.499Z,21.82
2018-11-23T08:41:03.232Z,23.43
2018-11-23T08:43:32.423Z,22.27
2018-11-23T08:46:01.568Z,24.80
2018-11-23T08:48:30.753Z,24.53
2018-11-23T08:50:59.927Z,22.27
2018-11-23T08:53:33.681Z,23.37
2018-11-23T08:56:03.068Z,22.27
2018-11-23T08:58:32.194Z,23.13
2018-11-23T09:01:01.375Z,23.52
2018-11-23T09:03:30.559Z,23.63
2018-11-23T09:06:00.299Z,22.58
2018-11-23T09:08:29.471Z,22.10
2018-11-23T09:10:58.675Z,22.80
2018-11-23T09:13:28.613Z,23.77
2018-11-23T09:15:57.875Z,23.70
2018-11-23T09:18:27.049Z,22.33
2018-11-23T09:20:56.245Z,23.70
2018-11-23T09:23:25.511Z,25.40
2018-11-23T09:25:54.691Z,24.03
2018-11-23T09:28:23.862Z,24.60
2018-11-23T09:30:53.036Z,24.40
2018-11-23T09:33:22.859Z,25.72
2018-11-23T09:35:52.793Z,22.73
2018-11-23T09:38:22.736Z,22.80
2018-11-23T09:40:52.883Z,23.90
2018-11-23T09:43:22.946Z,23.15
2018-11-23T09:45:52.816Z,23.63
2018-11-23T09:48:22.850Z,23.42
2018-11-23T09:50:53.045Z,22.93
2018-11-23T09:53:22.984Z,22.90
2018-11-23T09:55:52.964Z,22.98
2018-11-23T09:58:23.593Z,21.20
2018-11-23T10:00:53.099Z,22.70
2018-11-23T10:03:23.029Z,19.40
2018-11-23T10:10:51.545Z,17.70
2018-11-23T10:13:20.933Z,18.23
2018-11-23T10:15:50.242Z,19.23
2018-11-23T10:21:19.391Z,17.30
2018-11-23T10:23:48.668Z,16.83
2018-11-23T10:26:17.996Z,17.70
2018-11-23T10:28:47.264Z,16.82
2018-11-23T10:31:16.591Z,19.67
2018-11-23T10:33:45.825Z,19.13
2018-11-23T10:36:15.100Z,17.90
2018-11-23T10:38:44.402Z,16.30
2018-11-23T10:41:13.640Z,16.23
2018-11-23T10:43:42.938Z,16.10
2018-11-23T10:46:12.124Z,14.30
2018-11-23T10:48:41.391Z,14.13
2018-11-23T10:51:11.336Z,13.47
2018-11-23T10:53:40.609Z,14.23
2018-11-23T10:56:09.936Z,13.40
2018-11-23T10:58:39.194Z,13.43
2018-11-23T11:01:13.558Z,14.17
2018-11-23T11:03:47.953Z,13.57
2018-11-23T11:06:23.199Z,13.83
2018-11-23T11:08:52.455Z,13.23
2018-11-23T11:11:21.803Z,13.73
2018-11-23T11:13:51.092Z,14.37
2018-11-23T11:16:20.334Z,15.10
2018-11-23T11:18:49.979Z,15.03
2018-11-23T11:21:19.236Z,14.37
2018-11-23T11:23:49.422Z,13.80
2018-11-23T11:26:18.673Z,14.40
2018-11-23T11:28:48.157Z,11.63
2018-11-23T11:31:17.420Z,11.10
2018-11-23T11:33:46.698Z,11.20
2018-11-23T11:36:15.978Z,12.30
2018-11-23T11:38:46.267Z,13.60
2018-11-23T11:41:14.728Z,11.17
2018-11-23T11:43:43.999Z,11.33
2018-11-23T11:46:13.290Z,10.67
2018-11-23T11:48:42.516Z,12.00
2018-11-23T11:51:11.809Z,11.10
2018-11-23T11:53:41.051Z,13.03
2018-11-23T11:56:10.290Z,12.60
2018-11-23T11:58:40.026Z,11.12
2018-11-23T12:01:09.390Z,10.87
2018-11-23T12:03:38.629Z,10.70
2018-11-23T12:06:07.940Z,11.45
2018-11-23T12:08:37.292Z,10.27
2018-11-23T12:11:07.064Z,11.60
2018-11-23T12:13:36.379Z,12.90
2018-11-23T12:16:05.696Z,12.70
2018-11-23T12:18:34.993Z,11.70
2018-11-23T12:21:04.652Z,10.97
2018-11-23T12:23:33.878Z,10.83
2018-11-23T12:26:03.238Z,10.00
2018-11-23T12:28:32.493Z,10.10
2018-11-23T12:31:01.764Z,9.00
2018-11-23T12:33:31.072Z,10.67
2018-11-23T12:36:00.388Z,9.60
2018-11-23T12:38:29.806Z,9.37
2018-11-23T12:40:59.216Z,10.33
2018-11-23T12:43:28.513Z,11.20
2018-11-23T12:45:57.796Z,10.40
2018-11-23T12:48:27.462Z,10.97
2018-11-23T12:50:56.765Z,11.07
2018-11-23T12:53:26.062Z,11.00
2018-11-23T12:55:55.387Z,10.17
2018-11-23T12:58:24.812Z,11.00
2018-11-23T13:00:54.655Z,11.63
2018-11-23T13:03:24.863Z,11.20
2018-11-23T13:05:54.853Z,10.70
2018-11-23T13:08:24.766Z,9.40
2018-11-23T13:10:54.838Z,9.03
2018-11-23T13:13:24.779Z,10.63
2018-11-23T13:15:54.768Z,9.50
2018-11-23T13:18:24.836Z,9.23
2018-11-23T13:20:55.082Z,10.13
2018-11-23T13:23:24.863Z,9.85
2018-11-23T13:25:54.959Z,8.77
2018-11-23T13:28:24.957Z,9.57
2018-11-23T13:30:55.016Z,9.55
2018-11-23T13:33:24.913Z,8.70
2018-11-23T13:35:54.948Z,9.03
2018-11-23T13:38:24.986Z,8.73
2018-11-23T13:40:55.264Z,10.47
2018-11-23T13:43:25.123Z,12.07
2018-11-23T13:45:55.219Z,9.65
2018-11-23T13:48:25.243Z,9.75
2018-11-23T13:50:55.184Z,9.05
2018-11-23T13:53:25.089Z,8.37
2018-11-23T13:55:55.211Z,10.13
2018-11-23T13:58:25.257Z,10.80
2018-11-23T14:00:55.354Z,10.58
2018-11-23T14:03:25.449Z,9.05
2018-11-23T14:05:55.344Z,9.55
2018-11-23T14:08:25.323Z,9.00
2018-11-23T14:10:55.334Z,9.40
2018-11-23T14:13:25.480Z,9.23
2018-11-23T14:15:55.559Z,9.00
2018-11-23T14:18:25.627Z,10.80
2018-11-23T14:20:55.633Z,15.85
2018-11-23T14:23:25.983Z,12.40
2018-11-23T14:25:56.301Z,10.38
2018-11-23T14:28:25.744Z,10.83
2018-11-23T14:30:55.528Z,9.20
2018-11-23T14:33:25.722Z,9.13
2018-11-23T14:35:55.432Z,9.23
2018-11-23T14:38:25.656Z,10.65
2018-11-23T14:40:55.738Z,9.18
2018-11-23T14:43:25.583Z,8.70
2018-11-23T14:45:55.637Z,9.77
2018-11-23T14:48:25.673Z,10.45
2018-11-23T14:50:55.765Z,10.13
2018-11-23T14:53:25.694Z,9.88
2018-11-23T14:55:55.673Z,7.90
2018-11-23T14:58:25.766Z,7.40
2018-11-23T15:00:55.712Z,7.60
2018-11-23T15:03:27.063Z,7.16
2018-11-23T15:05:56.411Z,8.50
2018-11-23T15:08:25.774Z,7.55
2018-11-23T15:10:55.797Z,7.50
2018-11-23T15:13:26.014Z,7.53
2018-11-23T15:15:55.917Z,6.40
2018-11-23T15:18:26.748Z,7.30
2018-11-23T15:20:55.963Z,6.97
2018-11-23T15:23:25.944Z,6.95
2018-11-23T15:25:56.330Z,7.58
2018-11-23T15:28:26.011Z,9.33
2018-11-23T15:30:55.983Z,9.13
2018-11-23T15:33:26.139Z,8.90
2018-11-23T15:35:55.936Z,8.73
2018-11-23T15:38:26.567Z,9.53
2018-11-23T15:40:56.173Z,10.00
2018-11-23T15:43:26.092Z,34.10
2018-11-23T15:45:56.232Z,8.73
2018-11-23T15:48:26.124Z,8.80
2018-11-23T15:50:56.165Z,8.05
2018-11-23T15:53:26.247Z,7.85
2018-11-23T15:55:56.361Z,8.75
2018-11-23T15:58:26.241Z,7.87
2018-11-23T16:00:56.286Z,8.10
2018-11-23T16:03:26.322Z,9.00
2018-11-23T16:05:56.379Z,8.30
2018-11-23T16:08:26.361Z,9.60
2018-11-23T16:10:57.307Z,8.13
2018-11-23T16:13:27.447Z,8.23
2018-11-23T16:15:57.564Z,7.73
2018-11-23T16:18:28.504Z,7.30
2018-11-23T16:20:58.849Z,8.60
2018-11-23T16:23:29.087Z,8.70
2018-11-23T16:25:59.107Z,9.00
2018-11-23T16:28:29.246Z,7.90
2018-11-23T16:44:48.281Z,7.07
2018-11-23T16:47:17.521Z,16.13
2018-11-23T16:49:46.777Z,7.87
2018-11-23T16:52:15.983Z,7.53
2018-11-23T16:54:45.333Z,8.07
2018-11-23T16:57:14.729Z,7.40
2018-11-23T16:59:44.000Z,7.90
2018-11-23T17:02:13.323Z,9.07
2018-11-23T17:04:42.570Z,9.17
2018-11-23T17:07:12.963Z,7.93
2018-11-23T17:09:41.238Z,8.97
2018-11-23T17:12:10.572Z,8.80
2018-11-23T17:14:39.931Z,9.33
2018-11-23T17:17:09.722Z,10.40
2018-11-23T17:19:38.951Z,9.93
2018-11-23T17:22:08.358Z,11.37
2018-11-23T17:24:37.787Z,10.13
2018-11-23T17:27:07.487Z,9.87
2018-11-23T17:29:36.716Z,9.00
2018-11-23T17:32:06.047Z,8.58
2018-11-23T17:34:35.315Z,8.80
2018-11-23T17:37:04.624Z,9.63
2018-11-23T17:39:33.942Z,8.53
2018-11-23T17:42:03.274Z,8.28
2018-11-23T17:44:32.487Z,8.85
2018-11-23T17:47:01.914Z,8.53
2018-11-23T17:49:31.201Z,9.37
2018-11-23T17:52:00.589Z,8.73
2018-11-23T17:54:29.890Z,8.77
2018-11-23T17:56:59.219Z,9.10
2018-11-23T17:59:32.685Z,9.50
2018-11-23T18:02:01.996Z,12.35
2018-11-23T18:04:31.317Z,10.67
2018-11-23T18:07:00.584Z,10.13
2018-11-23T18:09:29.924Z,8.40
2018-11-23T18:11:59.225Z,8.20
2018-11-23T18:14:28.498Z,9.40
2018-11-23T18:16:57.813Z,9.03
2018-11-23T18:19:27.542Z,8.83
2018-11-23T18:21:57.550Z,9.00
2018-11-23T18:24:27.685Z,8.03
2018-11-23T18:26:57.874Z,8.08
2018-11-23T18:29:27.897Z,7.63
2018-11-23T18:31:57.684Z,11.15
2018-11-23T18:34:27.785Z,8.33
2018-11-23T18:36:57.652Z,7.13
2018-11-23T18:39:27.787Z,8.60
2018-11-23T18:41:57.692Z,8.30
2018-11-23T18:44:27.777Z,7.30
2018-11-23T18:46:57.722Z,8.03
2018-11-23T18:49:27.830Z,7.15
2018-11-23T18:51:57.874Z,7.30
2018-11-23T18:54:27.903Z,7.87
2018-11-23T18:56:57.918Z,7.95
2018-11-23T18:59:27.944Z,8.00
2018-11-23T19:01:58.025Z,7.05
2018-11-23T19:04:28.112Z,8.90
2018-11-23T19:06:57.983Z,7.87
2018-11-23T19:09:28.168Z,7.40
2018-11-23T19:11:57.993Z,7.53
2018-11-23T19:14:27.977Z,7.07
2018-11-23T19:16:58.079Z,8.53
2018-11-23T19:19:28.115Z,8.68
2018-11-23T19:21:58.066Z,8.50
2018-11-23T19:24:28.334Z,8.20
2018-11-23T19:26:58.177Z,13.75
2018-11-23T19:29:34.702Z,9.03
2018-11-23T19:32:04.199Z,8.57
2018-11-23T19:34:34.391Z,7.80
2018-11-23T19:37:04.646Z,8.58
2018-11-23T19:39:34.444Z,8.30
2018-11-23T19:42:04.206Z,9.97
2018-11-23T19:44:34.696Z,8.43
2018-11-23T19:47:04.560Z,9.40
2018-11-23T19:49:34.399Z,9.10
2018-11-23T19:52:03.866Z,9.47
2018-11-23T19:54:33.385Z,10.45
2018-11-23T19:57:02.905Z,10.00
2018-11-23T19:59:32.197Z,9.37
2018-11-23T20:02:01.730Z,10.40
2018-11-23T20:04:31.282Z,9.53
2018-11-23T20:07:00.838Z,8.97
2018-11-23T20:09:30.893Z,11.60
2018-11-23T20:12:00.687Z,10.37
2018-11-23T20:14:30.379Z,10.90
2018-11-23T20:16:59.771Z,10.60
2018-11-23T20:19:29.177Z,10.87
2018-11-23T20:21:58.666Z,10.85
2018-11-23T20:24:28.803Z,10.70
2018-11-23T20:26:58.750Z,11.77
2018-11-23T20:29:28.914Z,11.18
2018-11-23T20:31:58.835Z,10.68
2018-11-23T20:34:28.826Z,10.37
2018-11-23T20:36:58.900Z,10.88
2018-11-23T20:39:29.273Z,10.90
2018-11-23T20:41:59.044Z,11.63
2018-11-23T20:44:29.072Z,11.45
2018-11-23T20:46:59.016Z,11.40
2018-11-23T20:49:28.948Z,11.30
2018-11-23T20:51:58.857Z,12.10
2018-11-23T20:54:28.898Z,12.07
2018-11-23T20:56:59.079Z,12.05
2018-11-23T20:59:28.969Z,12.37
2018-11-23T21:01:59.124Z,12.70
2018-11-23T21:04:29.021Z,12.40
2018-11-23T21:06:59.194Z,12.45
2018-11-23T21:09:31.180Z,13.17
2018-11-23T21:11:59.137Z,13.53
2018-11-23T21:14:29.146Z,13.70
2018-11-23T21:16:59.129Z,12.40
2018-11-23T21:19:29.290Z,13.30
2018-11-23T21:21:59.237Z,13.78
2018-11-23T21:24:29.326Z,13.75
2018-11-23T21:26:59.266Z,13.60
2018-11-23T21:29:29.344Z,14.33
2018-11-23T21:31:59.518Z,13.67
2018-11-23T21:34:29.735Z,17.27
2018-11-23T21:36:59.243Z,18.37
2018-11-23T21:39:29.270Z,15.50
2018-11-23T21:41:59.626Z,14.27
2018-11-23T21:44:29.560Z,15.25
2018-11-23T21:46:59.540Z,14.37
2018-11-23T21:49:29.618Z,13.65
2018-11-23T21:51:59.527Z,13.48
2018-11-23T21:54:29.413Z,14.67
2018-11-23T21:56:59.914Z,14.13
2018-11-23T21:59:29.998Z,15.10
2018-11-23T22:02:00.370Z,13.87
2018-11-23T22:04:29.638Z,14.78
2018-11-23T22:06:59.556Z,15.73
2018-11-23T22:09:29.696Z,14.73
2018-11-23T22:11:59.643Z,14.38
2018-11-23T22:14:29.786Z,14.80
2018-11-23T22:16:59.749Z,15.53
2018-11-23T22:19:29.697Z,14.43
2018-11-23T22:22:00.383Z,14.87
2018-11-23T22:24:29.765Z,14.90
2018-11-23T22:26:59.760Z,14.80
2018-11-23T22:29:29.848Z,14.00
2018-11-23T22:31:59.702Z,16.05
2018-11-23T22:34:29.783Z,15.30
2018-11-23T22:36:59.835Z,15.50
2018-11-23T22:39:29.869Z,16.55
2018-11-23T22:41:59.860Z,16.00
2018-11-23T22:44:29.911Z,17.00
2018-11-23T22:46:59.963Z,15.58
2018-11-23T22:49:30.035Z,17.35
2018-11-23T22:52:00.228Z,21.50
2018-11-23T22:54:30.069Z,21.57
2018-11-23T22:57:00.026Z,20.60
2018-11-23T22:59:30.118Z,18.93
2018-11-23T23:02:00.139Z,18.30
2018-11-23T23:04:30.153Z,18.12
2018-11-23T23:07:00.105Z,18.40
2018-11-23T23:09:30.458Z,18.60
2018-11-23T23:12:01.081Z,19.45
2018-11-23T23:14:30.452Z,18.57
2018-11-23T23:17:00.217Z,18.40
2018-11-23T23:19:30.273Z,18.25
2018-11-23T23:22:00.356Z,18.45
2018-11-23T23:24:30.312Z,19.23
2018-11-23T23:27:00.423Z,19.07
2018-11-23T23:29:30.391Z,19.17
2018-11-23T23:32:00.409Z,18.67
2018-11-23T23:34:30.347Z,21.90
2018-11-23T23:40:00.881Z,19.77
2018-11-23T23:42:30.871Z,16.93
2018-11-23T23:45:00.808Z,18.63
2018-11-23T23:47:31.007Z,19.05
2018-11-23T23:50:00.507Z,18.62
2018-11-23T23:52:30.619Z,17.42
2018-11-23T23:55:00.800Z,19.73
2018-11-23T23:57:30.623Z,16.42
